createdAt,value
2018-03-14T00:01:58.298Z,92744.05
2018-03-14T00:04:24.714Z,92745.15
2018-03-14T00:06:51.751Z,92740.95
2018-03-14T00:09:18.100Z,92732.45
2018-03-14T00:11:44.575Z,92731.30
2018-03-14T00:14:10.965Z,92725.95
2018-03-14T00:16:37.299Z,92721.90
2018-03-14T00:19:03.670Z,92719.59
2018-03-14T00:21:30.077Z,92720.89
2018-03-14T00:23:56.536Z,92722.40
2018-03-14T00:26:23.093Z,92726.53
2018-03-14T00:28:49.464Z,92734.36
2018-03-14T00:31:16.086Z,92723.00
2018-03-14T00:33:42.499Z,92726.22
2018-03-14T00:36:08.838Z,92721.61
2018-03-14T00:38:35.209Z,92720.98
2018-03-14T00:41:01.686Z,92716.02
2018-03-14T00:43:28.051Z,92719.25
2018-03-14T00:45:54.403Z,92714.73
2018-03-14T00:48:20.886Z,92715.03
2018-03-14T00:50:47.294Z,92716.27
2018-03-14T00:53:14.841Z,92713.81
2018-03-14T00:55:41.189Z,92719.28
2018-03-14T00:58:07.607Z,92719.53
2018-03-14T01:00:34.024Z,92717.56
2018-03-14T01:03:00.403Z,92710.77
2018-03-14T01:05:26.809Z,92715.86
2018-03-14T01:07:53.155Z,92716.02
2018-03-14T01:10:19.599Z,92715.22
2018-03-14T01:12:46.065Z,92719.14
2018-03-14T01:15:12.387Z,92716.94
2018-03-14T01:17:39.216Z,92716.02
2018-03-14T01:20:05.714Z,92722.76
2018-03-14T01:22:32.380Z,92724.24
2018-03-14T01:24:58.803Z,92716.70
2018-03-14T01:27:25.136Z,92723.81
2018-03-14T01:29:51.747Z,92719.18
2018-03-14T01:32:18.217Z,92709.72
2018-03-14T01:34:44.562Z,92708.73
2018-03-14T01:37:10.923Z,92710.65
2018-03-14T01:39:37.361Z,92715.39
2018-03-14T01:42:03.835Z,92713.61
2018-03-14T01:44:30.303Z,92710.95
2018-03-14T01:46:56.753Z,92711.94
2018-03-14T01:49:23.129Z,92716.91
2018-03-14T01:51:49.576Z,92716.14
2018-03-14T01:54:16.112Z,92709.06
2018-03-14T01:56:42.456Z,92711.72
2018-03-14T01:59:08.859Z,92703.80
2018-03-14T02:01:35.329Z,92699.27
2018-03-14T02:04:01.713Z,92700.55
2018-03-14T02:06:28.156Z,92704.07
2018-03-14T02:08:55.139Z,92697.30
2018-03-14T02:11:21.520Z,92702.17
2018-03-14T02:13:47.875Z,92705.55
2018-03-14T02:16:14.230Z,92699.92
2018-03-14T02:18:40.711Z,92703.93
2018-03-14T02:21:07.135Z,92702.50
2018-03-14T02:23:33.512Z,92703.44
2018-03-14T02:25:59.913Z,92696.94
2018-03-14T02:28:26.238Z,92700.72
2018-03-14T02:30:52.729Z,92698.17
2018-03-14T02:33:19.064Z,92694.80
2018-03-14T02:35:45.413Z,92693.09
2018-03-14T02:38:11.813Z,92694.66
2018-03-14T02:40:38.223Z,92693.03
2018-03-14T02:43:04.562Z,92689.31
2018-03-14T02:45:30.880Z,92695.08
2018-03-14T02:47:57.250Z,92691.86
2018-03-14T02:50:23.673Z,92696.16
2018-03-14T02:52:50.010Z,92690.98
2018-03-14T02:55:16.640Z,92697.90
2018-03-14T02:57:42.956Z,92699.11
2018-03-14T03:00:09.548Z,92702.48
2018-03-14T03:02:35.897Z,92706.03
2018-03-14T03:05:02.242Z,92712.13
2018-03-14T03:07:28.626Z,92708.40
2018-03-14T03:09:55.037Z,92711.20
2018-03-14T03:12:21.388Z,92703.91
2018-03-14T03:14:47.676Z,92703.52
2018-03-14T03:17:14.082Z,92708.56
2018-03-14T03:19:40.436Z,92706.41
2018-03-14T03:22:06.876Z,92710.77
2018-03-14T03:24:33.269Z,92708.92
2018-03-14T03:26:59.598Z,92713.89
2018-03-14T03:29:25.951Z,92712.30
2018-03-14T03:31:52.336Z,92711.69
2018-03-14T03:34:18.670Z,92715.14
2018-03-14T03:36:45.153Z,92719.34
2018-03-14T03:39:11.656Z,92713.39
2018-03-14T03:41:38.126Z,92716.45
2018-03-14T03:44:04.510Z,92716.98
2018-03-14T03:46:30.874Z,92713.19
2018-03-14T03:48:57.204Z,92719.72
2018-03-14T03:51:23.694Z,92719.52
2018-03-14T03:53:50.264Z,92716.59
2018-03-14T03:56:16.568Z,92711.62
2018-03-14T03:58:42.887Z,92719.44
2018-03-14T04:01:09.334Z,92719.52
2018-03-14T04:03:35.651Z,92709.92
2018-03-14T04:06:01.984Z,92716.67
2018-03-14T04:08:28.341Z,92718.31
2018-03-14T04:10:54.758Z,92712.69
2018-03-14T04:13:21.160Z,92717.91
2018-03-14T04:15:47.505Z,92714.99
2018-03-14T04:18:13.822Z,92719.02
2018-03-14T04:20:40.258Z,92720.77
2018-03-14T04:23:06.602Z,92719.05
2018-03-14T04:25:32.968Z,92724.27
2018-03-14T04:27:59.288Z,92725.30
2018-03-14T04:30:25.758Z,92720.56
2018-03-14T04:32:52.109Z,92724.20
2018-03-14T04:35:18.427Z,92723.09
2018-03-14T04:37:44.810Z,92722.13
2018-03-14T04:40:11.131Z,92723.79
2018-03-14T04:42:37.556Z,92727.41
2018-03-14T04:45:04.074Z,92739.33
2018-03-14T04:47:30.458Z,92737.53
2018-03-14T04:49:56.779Z,92739.02
2018-03-14T04:52:23.242Z,92736.45
2018-03-14T04:54:49.582Z,92743.24
2018-03-14T04:57:15.929Z,92742.37
2018-03-14T04:59:42.305Z,92743.11
2018-03-14T05:02:08.846Z,92743.16
2018-03-14T05:04:35.219Z,92755.44
2018-03-14T05:07:01.570Z,92753.05
2018-03-14T05:09:27.878Z,92756.39
2018-03-14T05:11:54.250Z,92755.10
2018-03-14T05:14:20.876Z,92763.15
2018-03-14T05:16:47.200Z,92767.83
2018-03-14T05:19:13.634Z,92761.66
2018-03-14T05:21:40.176Z,92768.51
2018-03-14T05:24:06.504Z,92768.71
2018-03-14T05:26:32.818Z,92764.71
2018-03-14T05:28:59.196Z,92767.53
2018-03-14T05:31:25.599Z,92768.30
2018-03-14T05:33:51.980Z,92765.20
2018-03-14T05:36:18.377Z,92769.42
2018-03-14T05:38:44.701Z,92769.23
2018-03-14T05:41:11.139Z,92763.20
2018-03-14T05:43:37.640Z,92766.64
2018-03-14T05:46:04.066Z,92770.38
2018-03-14T05:48:30.427Z,92773.18
2018-03-14T05:50:56.930Z,92780.27
2018-03-14T05:53:23.325Z,92776.63
2018-03-14T05:55:49.827Z,92778.45
2018-03-14T05:58:16.193Z,92776.97
2018-03-14T06:00:43.643Z,92778.58
2018-03-14T06:03:10.002Z,92774.00
2018-03-14T06:05:36.409Z,92773.47
2018-03-14T06:08:02.741Z,92779.86
2018-03-14T06:10:29.230Z,92779.30
2018-03-14T06:12:56.603Z,92779.48
2018-03-14T06:15:23.053Z,92779.83
2018-03-14T06:17:49.487Z,92777.84
2018-03-14T06:20:16.081Z,92776.30
2018-03-14T06:22:42.488Z,92785.20
2018-03-14T06:25:08.845Z,92786.05
2018-03-14T06:27:35.771Z,92797.44
2018-03-14T06:30:02.230Z,92793.06
2018-03-14T06:32:28.608Z,92800.73
2018-03-14T06:34:55.057Z,92803.85
2018-03-14T06:37:21.709Z,92812.48
2018-03-14T06:39:48.137Z,92808.19
2018-03-14T06:42:14.588Z,92812.44
2018-03-14T06:44:41.011Z,92810.28
2018-03-14T06:47:07.341Z,92814.52
2018-03-14T06:49:33.734Z,92814.30
2018-03-14T06:52:00.176Z,92819.20
2018-03-14T06:54:26.523Z,92823.34
2018-03-14T06:56:53.064Z,92819.20
2018-03-14T06:59:31.748Z,92819.36
2018-03-14T07:02:10.259Z,92819.86
2018-03-14T07:04:59.697Z,92821.23
2018-03-14T07:07:26.099Z,92816.95
2018-03-14T07:09:52.539Z,92824.06
2018-03-14T07:12:18.992Z,92825.91
2018-03-14T07:14:45.370Z,92828.20
2018-03-14T07:17:11.752Z,92829.85
2018-03-14T07:19:38.408Z,92838.95
2018-03-14T07:22:04.822Z,92838.02
2018-03-14T07:24:31.160Z,92839.45
2018-03-14T07:26:57.583Z,92837.05
2018-03-14T07:29:23.944Z,92837.81
2018-03-14T07:31:50.305Z,92838.28
2018-03-14T07:34:16.658Z,92841.22
2018-03-14T07:36:43.009Z,92837.30
2018-03-14T07:39:09.305Z,92841.70
2018-03-14T07:41:36.676Z,92847.66
2018-03-14T07:44:03.053Z,92839.50
2018-03-14T07:46:29.360Z,92838.84
2018-03-14T07:48:55.720Z,92844.03
2018-03-14T07:51:22.123Z,92844.17
2018-03-14T07:53:48.454Z,92846.38
2018-03-14T07:56:14.760Z,92846.50
2018-03-14T07:58:41.120Z,92842.43
2018-03-14T08:01:07.577Z,92844.17
2018-03-14T08:03:33.909Z,92851.58
2018-03-14T08:06:00.369Z,92849.28
2018-03-14T08:08:26.815Z,92850.47
2018-03-14T08:10:53.310Z,92850.97
2018-03-14T08:13:19.749Z,92846.14
2018-03-14T08:15:46.184Z,92854.03
2018-03-14T08:18:12.596Z,92850.14
2018-03-14T08:20:39.630Z,92854.53
2018-03-14T08:23:06.304Z,92852.58
2018-03-14T08:25:32.728Z,92861.77
2018-03-14T08:27:59.243Z,92854.47
2018-03-14T08:30:25.672Z,92862.41
2018-03-14T08:32:52.168Z,92859.37
2018-03-14T08:35:18.583Z,92868.80
2018-03-14T08:37:44.964Z,92871.42
2018-03-14T08:40:11.298Z,92879.56
2018-03-14T08:42:37.797Z,92875.92
2018-03-14T08:45:04.208Z,92881.92
2018-03-14T08:47:30.675Z,92885.91
2018-03-14T08:49:56.994Z,92883.27
2018-03-14T08:52:23.463Z,92883.63
2018-03-14T08:54:49.850Z,92883.31
2018-03-14T08:57:16.253Z,92883.17
2018-03-14T08:59:42.617Z,92880.23
2018-03-14T09:02:09.030Z,92880.16
2018-03-14T09:04:35.484Z,92884.69
2018-03-14T09:07:01.859Z,92884.84
2018-03-14T09:09:28.246Z,92876.24
2018-03-14T09:11:54.615Z,92881.89
2018-03-14T09:14:20.978Z,92880.03
2018-03-14T09:16:47.425Z,92881.59
2018-03-14T09:19:13.756Z,92876.52
2018-03-14T09:21:40.144Z,92880.42
2018-03-14T09:24:07.426Z,92876.41
2018-03-14T09:26:33.829Z,92869.34
2018-03-14T09:29:00.171Z,92872.77
2018-03-14T09:31:26.602Z,92870.09
2018-03-14T09:33:52.976Z,92862.38
2018-03-14T09:36:19.347Z,92864.41
2018-03-14T09:38:45.798Z,92865.84
2018-03-14T09:41:12.284Z,92864.70
2018-03-14T09:43:38.811Z,92857.61
2018-03-14T09:46:05.222Z,92859.41
2018-03-14T09:48:31.571Z,92850.97
2018-03-14T09:50:57.993Z,92856.44
2018-03-14T09:53:24.416Z,92859.97
2018-03-14T09:55:50.802Z,92863.64
2018-03-14T09:58:18.021Z,92854.88
2018-03-14T10:00:44.658Z,92857.52
2018-03-14T10:03:11.077Z,92853.95
2018-03-14T10:05:37.442Z,92852.06
2018-03-14T10:08:03.871Z,92846.38
2018-03-14T10:10:30.252Z,92844.55
2018-03-14T10:12:56.706Z,92848.59
2018-03-14T10:15:23.136Z,92846.58
2018-03-14T10:17:49.529Z,92846.58
2018-03-14T10:20:15.849Z,92841.33
2018-03-14T10:22:42.324Z,92844.66
2018-03-14T10:25:09.633Z,92846.48
2018-03-14T10:27:36.333Z,92839.41
2018-03-14T10:30:02.840Z,92834.44
2018-03-14T10:32:29.262Z,92834.36
2018-03-14T10:34:55.697Z,92831.02
2018-03-14T10:37:22.059Z,92831.95
2018-03-14T10:39:48.619Z,92836.02
2018-03-14T10:42:15.064Z,92833.09
2018-03-14T10:44:41.502Z,92829.06
2018-03-14T10:47:07.834Z,92827.04
2018-03-14T10:49:34.317Z,92828.03
2018-03-14T10:52:00.881Z,92827.18
2018-03-14T10:54:27.265Z,92828.78
2018-03-14T10:56:53.660Z,92821.69
2018-03-14T10:59:20.040Z,92817.92
2018-03-14T11:01:46.674Z,92823.78
2018-03-14T11:04:13.137Z,92816.29
2018-03-14T11:06:39.625Z,92806.81
2018-03-14T11:09:06.166Z,92807.60
2018-03-14T11:11:32.852Z,92801.42
2018-03-14T11:13:59.296Z,92802.78
2018-03-14T11:16:25.647Z,92798.28
2018-03-14T11:18:52.053Z,92796.86
2018-03-14T11:21:18.517Z,92790.86
2018-03-14T11:23:44.850Z,92797.93
2018-03-14T11:26:11.205Z,92790.78
2018-03-14T11:28:37.652Z,92787.71
2018-03-14T11:31:04.091Z,92786.20
2018-03-14T11:33:30.454Z,92783.45
2018-03-14T11:35:56.933Z,92781.69
2018-03-14T11:38:23.285Z,92785.05
2018-03-14T11:40:49.675Z,92786.52
2018-03-14T11:43:16.075Z,92782.33
2018-03-14T11:45:42.429Z,92780.45
2018-03-14T11:48:08.839Z,92777.01
2018-03-14T11:50:35.646Z,92778.70
2018-03-14T11:53:02.154Z,92767.14
2018-03-14T11:55:28.501Z,92770.10
2018-03-14T11:57:54.902Z,92765.55
2018-03-14T12:00:21.284Z,92767.24
2018-03-14T12:02:47.776Z,92770.41
2018-03-14T12:05:14.208Z,92771.41
2018-03-14T12:07:40.555Z,92764.43
2018-03-14T12:10:06.984Z,92768.30
2018-03-14T12:12:33.651Z,92765.80
2018-03-14T12:15:00.027Z,92772.02
2018-03-14T12:17:26.473Z,92763.45
2018-03-14T12:19:52.964Z,92767.41
2018-03-14T12:22:25.554Z,92763.52
2018-03-14T12:24:51.925Z,92759.00
2018-03-14T12:27:19.052Z,92761.30
2018-03-14T12:29:45.468Z,92759.58
2018-03-14T12:32:11.990Z,92754.78
2018-03-14T12:34:38.555Z,92756.36
2018-03-14T12:37:04.983Z,92750.28
2018-03-14T12:39:31.534Z,92752.80
2018-03-14T12:41:57.936Z,92749.72
2018-03-14T12:44:24.383Z,92739.63
2018-03-14T12:46:51.196Z,92742.17
2018-03-14T12:49:17.541Z,92731.70
2018-03-14T12:51:44.044Z,92732.58
2018-03-14T12:54:10.614Z,92728.92
2018-03-14T12:56:37.006Z,92732.83
2018-03-14T12:59:03.411Z,92727.23
2018-03-14T13:01:29.901Z,92733.06
2018-03-14T13:03:56.241Z,92723.58
2018-03-14T13:06:22.894Z,92726.39
2018-03-14T13:08:49.461Z,92723.78
2018-03-14T13:11:15.924Z,92722.01
2018-03-14T13:13:42.316Z,92714.33
2018-03-14T13:16:08.751Z,92711.62
2018-03-14T13:18:35.175Z,92718.62
2018-03-14T13:21:01.516Z,92710.40
2018-03-14T13:23:27.922Z,92711.80
2018-03-14T13:25:54.365Z,92717.09
2018-03-14T13:28:20.700Z,92713.33
2018-03-14T13:30:47.082Z,92713.92
2018-03-14T13:33:13.547Z,92716.14
2018-03-14T13:35:39.882Z,92716.06
2018-03-14T13:38:06.304Z,92710.88
2018-03-14T13:40:32.626Z,92712.68
2018-03-14T13:42:58.988Z,92711.25
2018-03-14T13:45:25.414Z,92707.21
2018-03-14T13:47:51.893Z,92706.72
2018-03-14T13:50:19.173Z,92706.36
2018-03-14T13:52:45.710Z,92711.75
2018-03-14T13:55:12.075Z,92707.83
2018-03-14T13:57:38.436Z,92706.16
2018-03-14T14:00:04.877Z,92702.98
2018-03-14T14:02:31.383Z,92706.92
2018-03-14T14:04:58.694Z,92705.22
2018-03-14T14:07:25.064Z,92707.58
2018-03-14T14:09:51.451Z,92712.84
2018-03-14T14:12:17.893Z,92705.45
2018-03-14T14:14:44.395Z,92706.84
2018-03-14T14:17:10.802Z,92705.86
2018-03-14T14:19:37.232Z,92704.88
2018-03-14T14:22:03.743Z,92700.28
2018-03-14T14:24:30.143Z,92701.21
2018-03-14T14:26:56.549Z,92701.30
2018-03-14T14:29:22.998Z,92702.66
2018-03-14T14:31:49.464Z,92698.22
2018-03-14T14:34:15.850Z,92697.59
2018-03-14T14:36:42.367Z,92695.77
2018-03-14T14:39:08.749Z,92697.69
2018-03-14T14:41:35.225Z,92702.33
2018-03-14T14:44:01.720Z,92698.45
2018-03-14T14:46:28.075Z,92700.31
2018-03-14T14:48:54.419Z,92698.36
2018-03-14T14:51:20.904Z,92696.61
2018-03-14T14:53:47.243Z,92696.48
2018-03-14T14:56:13.668Z,92695.67
2018-03-14T14:58:40.286Z,92699.46
2018-03-14T15:01:06.697Z,92703.66
2018-03-14T15:03:35.317Z,92699.48
2018-03-14T15:06:03.509Z,92703.66
2018-03-14T15:08:32.232Z,92705.94
2018-03-14T15:11:00.574Z,92703.66
2018-03-14T15:13:29.031Z,92704.00
2018-03-14T15:15:57.550Z,92707.64
2018-03-14T15:18:25.717Z,92709.14
2018-03-14T15:20:53.593Z,92715.84
2018-03-14T15:23:21.583Z,92718.39
2018-03-14T15:25:49.240Z,92718.66
2018-03-14T15:28:17.624Z,92712.73
2018-03-14T15:30:45.827Z,92716.82
2018-03-14T15:33:13.800Z,92714.77
2018-03-14T15:35:41.731Z,92713.28
2018-03-14T15:38:10.057Z,92716.77
2018-03-14T15:40:37.719Z,92713.22
2018-03-14T15:43:06.251Z,92717.03
2018-03-14T15:45:34.415Z,92722.68
2018-03-14T15:48:02.605Z,92719.08
2018-03-14T15:50:30.795Z,92720.05
2018-03-14T15:52:58.350Z,92724.37
2018-03-14T15:55:26.450Z,92726.45
2018-03-14T15:57:53.785Z,92729.75
2018-03-14T16:00:22.499Z,92727.73
2018-03-14T16:02:49.845Z,92726.93
2018-03-14T16:05:18.190Z,92728.38
2018-03-14T16:07:46.228Z,92733.81
2018-03-14T16:10:13.944Z,92732.97
2018-03-14T16:12:41.807Z,92730.73
2018-03-14T16:15:09.809Z,92731.80
2018-03-14T16:17:37.655Z,92723.77
2018-03-14T16:20:05.687Z,92733.48
2018-03-14T16:22:34.036Z,92726.40
2018-03-14T16:25:02.489Z,92735.29
2018-03-14T16:27:31.172Z,92734.46
2018-03-14T16:29:58.728Z,92729.72
2018-03-14T16:32:26.437Z,92730.42
2018-03-14T16:34:55.109Z,92733.27
2018-03-14T16:37:23.329Z,92732.77
2018-03-14T16:39:50.920Z,92732.20
2018-03-14T16:42:18.941Z,92740.37
2018-03-14T16:44:47.031Z,92737.64
2018-03-14T16:47:14.957Z,92739.12
2018-03-14T16:49:42.826Z,92738.22
2018-03-14T16:52:09.992Z,92739.61
2018-03-14T16:54:38.570Z,92737.92
2018-03-14T16:57:07.867Z,92751.70
2018-03-14T16:59:34.994Z,92757.16
2018-03-14T17:02:02.699Z,92754.66
2018-03-14T17:04:30.294Z,92756.74
2018-03-14T17:06:58.934Z,92752.98
2018-03-14T17:09:27.086Z,92765.66
2018-03-14T17:11:55.109Z,92769.28
2018-03-14T17:14:27.279Z,92769.41
2018-03-14T17:16:48.109Z,92768.39
2018-03-14T17:19:14.510Z,92768.07
2018-03-14T17:21:40.955Z,92765.47
2018-03-14T17:24:07.322Z,92771.12
2018-03-14T17:26:33.769Z,92771.56
2018-03-14T17:29:00.228Z,92770.28
2018-03-14T17:31:26.717Z,92770.91
2018-03-14T17:33:53.232Z,92778.02
2018-03-14T17:36:19.697Z,92776.56
2018-03-14T17:38:46.281Z,92776.59
2018-03-14T17:41:12.735Z,92779.96
2018-03-14T17:43:39.220Z,92783.91
2018-03-14T17:46:05.675Z,92778.34
2018-03-14T17:48:32.539Z,92774.69
2018-03-14T17:50:59.054Z,92779.19
2018-03-14T17:53:25.616Z,92776.75
2018-03-14T17:55:52.093Z,92785.44
2018-03-14T17:58:18.582Z,92779.87
2018-03-14T18:00:44.966Z,92783.52
2018-03-14T18:03:11.475Z,92781.02
2018-03-14T18:05:38.341Z,92784.28
2018-03-14T18:08:04.748Z,92781.04
2018-03-14T18:10:31.240Z,92782.17
2018-03-14T18:12:57.785Z,92781.00
2018-03-14T18:15:24.258Z,92782.27
2018-03-14T18:17:51.241Z,92782.84
2018-03-14T18:20:17.793Z,92780.92
2018-03-14T18:22:44.291Z,92787.84
2018-03-14T18:25:10.838Z,92792.34
2018-03-14T18:27:37.304Z,92792.50
2018-03-14T18:30:03.906Z,92792.31
2018-03-14T18:32:30.607Z,92795.66
2018-03-14T18:34:57.228Z,92798.21
2018-03-14T18:37:23.726Z,92799.01
2018-03-14T18:39:50.366Z,92802.80
2018-03-14T18:42:16.903Z,92799.25
2018-03-14T18:44:43.406Z,92797.91
2018-03-14T18:47:09.827Z,92799.80
2018-03-14T18:49:36.214Z,92797.91
2018-03-14T18:52:02.704Z,92803.78
2018-03-14T18:54:29.247Z,92804.55
2018-03-14T18:56:55.735Z,92803.47
2018-03-14T18:59:22.228Z,92803.28
2018-03-14T19:01:48.892Z,92809.91
2018-03-14T19:04:15.653Z,92807.02
2018-03-14T19:06:42.059Z,92807.97
2018-03-14T19:09:08.697Z,92804.45
2018-03-14T19:11:35.195Z,92806.81
2018-03-14T19:14:01.643Z,92814.55
2018-03-14T19:16:28.179Z,92806.84
2018-03-14T19:18:54.632Z,92811.33
2018-03-14T19:21:21.113Z,92825.02
2018-03-14T19:23:47.597Z,92835.67
2018-03-14T19:26:14.004Z,92833.34
2018-03-14T19:28:40.650Z,92830.84
2018-03-14T19:31:07.208Z,92834.48
2018-03-14T19:33:33.633Z,92831.92
2018-03-14T19:36:00.105Z,92835.14
2018-03-14T19:38:26.637Z,92834.91
2018-03-14T19:40:53.062Z,92839.62
2018-03-14T19:43:19.862Z,92834.94
2018-03-14T19:45:46.326Z,92834.47
2018-03-14T19:48:13.626Z,92841.73
2018-03-14T19:50:40.052Z,92839.16
2018-03-14T19:53:06.492Z,92846.59
2018-03-14T19:55:32.943Z,92849.91
2018-03-14T19:57:59.362Z,92852.14
2018-03-14T20:00:25.984Z,92857.31
2018-03-14T20:02:52.411Z,92853.39
2018-03-14T20:05:19.064Z,92850.69
2018-03-14T20:07:45.545Z,92852.28
2018-03-14T20:10:12.131Z,92856.66
2018-03-14T20:12:38.867Z,92855.48
2018-03-14T20:15:05.463Z,92856.11
2018-03-14T20:17:31.897Z,92853.92
2018-03-14T20:19:58.747Z,92858.61
2018-03-14T20:22:25.432Z,92859.17
2018-03-14T20:24:51.916Z,92855.14
2018-03-14T20:27:18.398Z,92855.47
2018-03-14T20:29:44.893Z,92863.12
2018-03-14T20:32:11.488Z,92855.33
2018-03-14T20:34:38.342Z,92861.35
2018-03-14T20:37:05.088Z,92861.57
2018-03-14T20:39:31.665Z,92862.38
2018-03-14T20:41:58.133Z,92864.66
2018-03-14T20:44:24.664Z,92864.32
2018-03-14T20:46:51.579Z,92858.78
2018-03-14T20:49:18.534Z,92864.52
2018-03-14T20:51:44.909Z,92862.77
2018-03-14T20:54:11.302Z,92862.50
2018-03-14T20:56:37.760Z,92861.06
2018-03-14T20:59:04.419Z,92868.64
2018-03-14T21:01:31.155Z,92869.90
2018-03-14T21:03:57.783Z,92867.33
2018-03-14T21:06:24.170Z,92871.65
2018-03-14T21:08:50.569Z,92874.70
2018-03-14T21:11:16.998Z,92875.98
2018-03-14T21:13:43.463Z,92872.66
2018-03-14T21:16:10.216Z,92880.91
2018-03-14T21:18:36.610Z,92877.28
2018-03-14T21:21:03.042Z,92876.19
2018-03-14T21:23:29.547Z,92870.95
2018-03-14T21:25:55.965Z,92872.00
2018-03-14T21:28:22.331Z,92873.63
2018-03-14T21:30:48.842Z,92874.09
2018-03-14T21:33:15.494Z,92877.34
2018-03-14T21:35:41.910Z,92881.61
2018-03-14T21:38:08.274Z,92879.16
2018-03-14T21:40:34.655Z,92880.09
2018-03-14T21:43:01.079Z,92880.35
2018-03-14T21:45:27.429Z,92876.27
2018-03-14T21:47:53.853Z,92877.13
2018-03-14T21:50:20.275Z,92877.25
2018-03-14T21:52:46.796Z,92881.31
2018-03-14T21:55:13.240Z,92879.00
2018-03-14T21:57:39.636Z,92884.95
2018-03-14T22:00:06.062Z,92883.00
2018-03-14T22:02:46.583Z,92880.09
2018-03-14T22:05:12.912Z,92881.20
2018-03-14T22:07:39.218Z,92878.88
2018-03-14T22:10:05.547Z,92881.47
2018-03-14T22:12:31.979Z,92886.59
2018-03-14T22:14:58.262Z,92887.33
2018-03-14T22:17:25.162Z,92884.20
2018-03-14T22:19:51.567Z,92882.67
2018-03-14T22:22:17.881Z,92883.59
2018-03-14T22:24:44.268Z,92883.48
2018-03-14T22:27:10.593Z,92877.12
2018-03-14T22:29:36.997Z,92878.55
2018-03-14T22:32:03.427Z,92882.48
2018-03-14T22:34:30.142Z,92882.95
2018-03-14T22:36:56.691Z,92882.22
2018-03-14T22:39:23.393Z,92882.55
2018-03-14T22:41:49.940Z,92881.50
2018-03-14T22:44:16.447Z,92882.98
2018-03-14T22:46:42.954Z,92882.37
2018-03-14T22:49:09.282Z,92883.13
2018-03-14T22:51:35.588Z,92887.80
2018-03-14T22:54:01.945Z,92892.42
2018-03-14T22:56:28.243Z,92895.08
2018-03-14T22:58:54.946Z,92891.73
2018-03-14T23:01:21.684Z,92898.39
2018-03-14T23:03:48.814Z,92898.28
2018-03-14T23:06:15.232Z,92903.02
2018-03-14T23:08:41.592Z,92902.65
2018-03-14T23:11:07.892Z,92907.39
2018-03-14T23:13:34.237Z,92905.98
2018-03-14T23:16:00.712Z,92907.27
2018-03-14T23:18:27.154Z,92911.30
2018-03-14T23:20:53.531Z,92911.52
2018-03-14T23:23:20.038Z,92908.55
2018-03-14T23:25:46.485Z,92911.47
2018-03-14T23:28:12.952Z,92903.28
2018-03-14T23:30:39.322Z,92912.47
2018-03-14T23:33:05.742Z,92909.98
2018-03-14T23:35:32.157Z,92908.43
2018-03-14T23:37:58.876Z,92911.54
2018-03-14T23:40:25.161Z,92908.20
2018-03-14T23:42:51.551Z,92909.84
2018-03-14T23:45:17.870Z,92906.17
2018-03-14T23:47:44.153Z,92918.71
2018-03-14T23:50:10.400Z,92913.09
2018-03-14T23:52:36.816Z,92908.68
2018-03-14T23:55:03.111Z,92912.15
2018-03-14T23:57:29.428Z,92906.39
2018-03-14T23:59:55.739Z,92911.27
